Time;durP1;ratioP1;P1;durP2;ratioP2;P2;SDS_P1;SDS_P2;PMS_P1;PMS_P2;Temp;Humidity;BMP_temperature;BMP_pressure;BME280_temperature;BME280_humidity;BME280_pressure;Samples;Min_cycle;Max_cycle;Signal;HPM_P1;HPM_P2
2024/03/29 01:44:18;;;;;;;1.20;1.20;;;9.80;39.00;;;;;;5016069;28;20480;-84
2024/03/29 01:46:47;;;;;;;1.30;1.20;;;9.70;39.30;;;;;;5049491;28;20504;-86
2024/03/29 01:49:14;;;;;;;1.10;1.10;;;9.80;40.10;;;;;;5047490;28;20535;-84
2024/03/29 01:51:43;;;;;;;1.20;1.10;;;9.80;39.60;;;;;;5041466;28;20468;-85
2024/03/29 01:54:11;;;;;;;1.30;1.20;;;9.80;39.90;;;;;;5046011;28;20444;-86
2024/03/29 01:56:41;;;;;;;1.40;1.30;;;9.90;40.10;;;;;;5027556;28;20513;-84
2024/03/29 01:59:14;;;;;;;1.10;1.10;;;9.80;39.20;;;;;;5047114;28;20796;-85
2024/03/29 02:01:42;;;;;;;1.40;1.03;;;9.80;39.40;;;;;;5040382;28;20484;-85
2024/03/29 02:04:10;;;;;;;1.20;1.20;;;9.70;39.30;;;;;;5044684;28;20539;-84
2024/03/29 02:06:38;;;;;;;1.10;1.10;;;9.80;39.80;;;;;;5040674;28;20507;-84
2024/03/29 02:09:05;;;;;;;1.13;1.13;;;9.80;39.50;;;;;;5024891;28;20456;-84
2024/03/29 02:11:32;;;;;;;5.17;1.40;;;9.80;39.80;;;;;;5043870;28;21176;-86
2024/03/29 02:14:01;;;;;;;1.37;1.27;;;9.80;39.90;;;;;;5046692;28;20443;-83
2024/03/29 02:16:29;;;;;;;1.27;1.17;;;9.90;41.30;;;;;;5045673;28;20476;-86
2024/03/29 02:18:56;;;;;;;1.10;1.10;;;9.90;40.30;;;;;;5053650;28;20944;-87
2024/03/29 02:21:24;;;;;;;1.27;1.00;;;9.80;40.80;;;;;;5048336;28;20459;-85
2024/03/29 02:24:01;;;;;;;1.20;1.20;;;9.80;39.40;;;;;;5044930;28;20449;-86
2024/03/29 02:26:31;;;;;;;1.60;1.10;;;9.80;38.30;;;;;;5040787;28;20472;-85
2024/03/29 02:28:59;;;;;;;1.00;1.00;;;9.80;39.60;;;;;;5043447;28;20527;-86
2024/03/29 02:31:26;;;;;;;1.13;1.13;;;9.80;41.00;;;;;;5029158;28;20440;-85
2024/03/29 02:33:53;;;;;;;1.00;1.00;;;9.80;41.10;;;;;;5041454;28;20464;-85
2024/03/29 02:36:21;;;;;;;1.10;1.10;;;9.80;40.90;;;;;;5045416;28;21312;-87
2024/03/29 02:38:48;;;;;;;1.30;1.20;;;9.80;40.00;;;;;;5030198;28;20460;-87
2024/03/29 02:41:17;;;;;;;1.10;1.10;;;9.90;40.80;;;;;;5047986;28;20466;-86
2024/03/29 02:43:44;;;;;;;1.10;1.10;;;9.90;40.60;;;;;;5040513;28;20570;-87
2024/03/29 02:46:11;;;;;;;1.73;1.10;;;9.80;41.30;;;;;;5043327;28;20863;-86
2024/03/29 02:48:38;;;;;;;1.20;1.10;;;9.80;41.10;;;;;;5046614;28;20853;-84
2024/03/29 02:51:05;;;;;;;1.10;1.10;;;9.90;56.50;;;;;;5045038;28;20497;-88
2024/03/29 02:53:32;;;;;;;1.00;1.00;;;9.80;42.10;;;;;;5048471;28;20456;-83
2024/03/29 02:55:59;;;;;;;1.10;1.10;;;9.80;42.50;;;;;;5044367;28;20506;-85
2024/03/29 02:58:27;;;;;;;1.20;1.20;;;9.80;42.40;;;;;;5026914;28;20445;-84
2024/03/29 03:00:54;;;;;;;1.57;1.10;;;9.80;43.20;;;;;;5042255;28;21091;-85
2024/03/29 03:03:24;;;;;;;1.00;1.00;;;9.70;43.10;;;;;;5042238;28;20459;-87
2024/03/29 03:05:52;;;;;;;1.00;1.00;;;9.70;43.40;;;;;;5044263;28;20531;-85
2024/03/29 03:11:05;;;;;;;1.40;1.30;;;9.60;43.30;;;;;;5042371;28;20467;-85
2024/03/29 03:13:34;;;;;;;1.67;1.03;;;9.60;45.70;;;;;;5028379;28;20449;-86
2024/03/29 03:16:01;;;;;;;1.27;1.20;;;9.60;44.60;;;;;;5023919;28;20955;-87
2024/03/29 03:18:28;;;;;;;1.00;1.00;;;9.60;45.60;;;;;;5028166;28;20455;-90
2024/03/29 03:20:57;;;;;;;1.20;1.20;;;9.60;46.60;;;;;;5018722;28;20476;-87
2024/03/29 03:23:25;;;;;;;2.20;1.30;;;9.60;47.50;;;;;;5040288;28;20472;-85
2024/03/29 03:25:55;;;;;;;1.20;1.20;;;9.60;48.20;;;;;;5043675;28;20924;-88
2024/03/29 03:28:22;;;;;;;1.20;1.10;;;9.60;48.10;;;;;;5042081;28;20498;-86
2024/03/29 03:30:50;;;;;;;1.30;1.30;;;9.70;46.70;;;;;;5039550;28;20506;-88
2024/03/29 03:33:18;;;;;;;1.20;1.20;;;9.70;47.40;;;;;;5045021;28;20433;-87
2024/03/29 03:35:45;;;;;;;1.20;1.20;;;9.60;47.00;;;;;;5040733;28;20474;-86
2024/03/29 03:38:16;;;;;;;1.10;1.10;;;9.50;46.00;;;;;;5041956;28;20462;-86
2024/03/29 03:40:42;;;;;;;1.23;1.20;;;9.50;47.30;;;;;;5041109;28;20451;-86
2024/03/29 03:43:10;;;;;;;1.40;1.30;;;9.50;47.70;;;;;;5044102;28;20482;-86
2024/03/29 03:45:37;;;;;;;1.30;1.30;;;9.30;44.60;;;;;;5040733;28;20461;-86
2024/03/29 03:48:07;;;;;;;1.20;1.20;;;9.30;47.70;;;;;;5046099;28;20452;-85
2024/03/29 03:50:33;;;;;;;1.20;1.20;;;9.30;47.70;;;;;;5039548;28;20505;-85
2024/03/29 03:53:00;;;;;;;1.40;1.30;;;9.30;48.20;;;;;;5042055;28;20451;-85
2024/03/29 03:55:27;;;;;;;1.67;1.40;;;9.30;47.40;;;;;;5046845;28;20517;-85
2024/03/29 03:57:54;;;;;;;1.30;1.30;;;9.10;46.40;;;;;;5042857;28;20491;-85
2024/03/29 04:00:21;;;;;;;1.90;1.80;;;8.80;42.90;;;;;;5038095;28;20458;-88
2024/03/29 04:02:49;;;;;;;1.30;1.20;;;8.70;40.90;;;;;;5045420;28;20451;-84
2024/03/29 04:05:18;;;;;;;1.10;1.10;;;8.70;37.70;;;;;;5024596;28;20474;-84
2024/03/29 04:07:45;;;;;;;2.10;1.10;;;8.80;35.20;;;;;;5040762;28;20496;-84
2024/03/29 04:10:12;;;;;;;1.47;1.47;;;8.80;36.20;;;;;;5042469;28;20480;-85
2024/03/29 04:12:39;;;;;;;1.33;1.10;;;9.10;36.60;;;;;;5029326;28;20485;-84
2024/03/29 04:15:06;;;;;;;1.10;1.10;;;9.10;35.90;;;;;;5043069;28;20470;-84
2024/03/29 04:17:34;;;;;;;1.10;1.10;;;9.40;38.80;;;;;;5039946;28;20725;-85
2024/03/29 04:20:00;;;;;;;1.00;1.00;;;9.60;41.10;;;;;;5044441;28;20546;-84
2024/03/29 04:22:30;;;;;;;1.43;1.00;;;9.70;41.90;;;;;;5041517;28;20948;-85
2024/03/29 04:24:57;;;;;;;1.27;1.17;;;9.80;41.40;;;;;;5046113;28;20459;-84
2024/03/29 04:27:24;;;;;;;1.50;1.33;;;9.80;42.00;;;;;;5045760;28;20537;-85
2024/03/29 04:29:52;;;;;;;1.20;1.20;;;9.90;44.10;;;;;;5040771;28;20498;-85
2024/03/29 04:32:19;;;;;;;1.30;1.20;;;9.80;44.60;;;;;;5045390;28;20941;-85
2024/03/29 04:34:47;;;;;;;1.20;1.10;;;9.80;44.50;;;;;;5041215;28;20198;-84
2024/03/29 04:37:15;;;;;;;1.07;1.07;;;9.80;45.30;;;;;;5037223;28;20516;-86
2024/03/29 04:39:44;;;;;;;1.20;1.10;;;9.90;46.70;;;;;;5036617;28;20872;-84
2024/03/29 04:42:12;;;;;;;1.30;1.20;;;9.90;45.70;;;;;;5029821;28;20927;-84
2024/03/29 04:44:40;;;;;;;1.33;1.03;;;9.90;46.60;;;;;;5042753;28;21165;-84
2024/03/29 04:47:07;;;;;;;4.90;3.20;;;9.80;46.50;;;;;;5025458;28;20884;-85
2024/03/29 04:49:36;;;;;;;2.80;2.60;;;9.80;48.30;;;;;;5040658;28;20950;-91
2024/03/29 04:52:04;;;;;;;3.20;2.43;;;9.70;49.00;;;;;;5024942;28;20443;-86
2024/03/29 04:54:32;;;;;;;4.00;2.17;;;9.60;47.50;;;;;;5041447;28;20503;-86
2024/03/29 04:57:03;;;;;;;4.10;2.37;;;9.60;48.70;;;;;;5039424;28;21292;-86
2024/03/29 04:59:30;;;;;;;2.90;2.23;;;9.60;49.00;;;;;;5045114;28;20456;-85
2024/03/29 05:02:00;;;;;;;2.10;2.00;;;9.50;49.80;;;;;;5027479;28;20440;-84
2024/03/29 05:04:28;;;;;;;1.30;1.20;;;9.50;48.60;;;;;;5026999;28;20455;-85
2024/03/29 05:06:56;;;;;;;2.00;1.30;;;9.60;60.60;;;;;;5045105;28;20921;-85
2024/03/29 05:09:25;;;;;;;1.60;1.50;;;9.70;47.30;;;;;;5048272;28;20461;-85
2024/03/29 05:11:52;;;;;;;1.70;1.60;;;9.70;49.10;;;;;;5044994;28;20501;-85
2024/03/29 05:14:22;;;;;;;1.60;1.50;;;9.70;50.60;;;;;;5028697;28;20463;-85
2024/03/29 05:16:50;;;;;;;2.20;1.60;;;9.70;51.10;;;;;;5041810;28;20478;-89
2024/03/29 05:19:17;;;;;;;1.30;1.20;;;9.70;51.80;;;;;;5025541;28;20548;-84
2024/03/29 05:21:44;;;;;;;1.77;1.60;;;9.70;52.50;;;;;;5046422;28;20451;-86
2024/03/29 05:24:12;;;;;;;1.50;1.40;;;9.70;52.70;;;;;;5045263;28;20481;-85
2024/03/29 05:26:39;;;;;;;1.80;1.23;;;9.60;51.70;;;;;;5029790;28;20456;-85
2024/03/29 05:29:07;;;;;;;1.13;1.13;;;9.70;48.90;;;;;;5030341;28;20460;-86
2024/03/29 05:31:36;;;;;;;1.40;1.30;;;9.70;48.50;;;;;;5044499;28;20448;-85
2024/03/29 05:34:04;;;;;;;1.40;1.40;;;9.70;53.10;;;;;;5050420;28;20452;-86
2024/03/29 05:36:32;;;;;;;1.23;1.23;;;9.60;51.20;;;;;;5028780;28;20482;-86
2024/03/29 05:38:59;;;;;;;1.67;1.57;;;9.70;54.40;;;;;;5044183;28;20448;-86
2024/03/29 05:41:27;;;;;;;1.60;1.50;;;9.60;56.50;;;;;;5045275;28;20468;-85
2024/03/29 05:43:54;;;;;;;1.47;1.37;;;9.60;56.60;;;;;;5043109;28;20451;-86
2024/03/29 05:46:22;;;;;;;1.50;1.40;;;9.60;57.30;;;;;;5042851;28;20477;-86
2024/03/29 05:48:50;;;;;;;2.03;1.93;;;9.60;57.00;;;;;;5033931;28;20467;-84
2024/03/29 05:51:18;;;;;;;1.50;1.40;;;9.60;58.00;;;;;;5027388;28;20451;-85
2024/03/29 05:53:45;;;;;;;1.27;1.23;;;9.60;58.10;;;;;;5025202;28;20491;-83
2024/03/29 05:56:13;;;;;;;1.30;1.20;;;9.60;52.30;;;;;;5039269;28;20496;-85
2024/03/29 05:58:40;;;;;;;1.23;1.23;;;9.70;50.30;;;;;;5043924;28;20453;-86
2024/03/29 06:01:08;;;;;;;1.50;1.40;;;9.70;50.90;;;;;;5041758;28;20957;-87
2024/03/29 06:03:38;;;;;;;2.40;1.40;;;9.80;52.40;;;;;;5055448;28;20455;-86
2024/03/29 06:06:10;;;;;;;2.23;1.13;;;9.90;51.30;;;;;;5049834;28;20475;-86
2024/03/29 06:08:37;;;;;;;1.20;1.20;;;9.80;49.20;;;;;;5042299;28;20488;-87
2024/03/29 06:11:05;;;;;;;1.40;1.30;;;9.80;50.50;;;;;;5043254;28;20470;-83
2024/03/29 06:19:00;;;;;;;2.33;2.23;;;9.90;51.60;;;;;;5013989;28;20483;-86
2024/03/29 06:21:32;;;;;;;1.97;1.40;;;9.90;53.70;;;;;;5026876;28;20463;-86
2024/03/29 06:23:59;;;;;;;1.97;1.87;;;10.00;51.00;;;;;;5027241;28;21022;-83
2024/03/29 06:26:26;;;;;;;1.30;1.20;;;10.00;52.30;;;;;;5044330;28;20499;-84
2024/03/29 06:28:54;;;;;;;1.83;1.70;;;10.00;51.00;;;;;;5029802;28;20435;-85
2024/03/29 06:31:21;;;;;;;3.33;3.03;;;10.00;51.50;;;;;;5044449;28;20463;-84
2024/03/29 06:33:48;;;;;;;1.80;1.70;;;10.10;50.70;;;;;;5042365;28;20461;-85
2024/03/29 06:36:16;;;;;;;1.80;1.70;;;10.10;50.90;;;;;;5045575;28;20522;-86
2024/03/29 06:38:45;;;;;;;1.70;1.60;;;10.10;51.90;;;;;;5030937;28;20479;-86
2024/03/29 06:41:13;;;;;;;1.60;1.50;;;10.10;52.90;;;;;;5045189;28;20458;-86
2024/03/29 06:43:43;;;;;;;1.50;1.40;;;10.10;53.10;;;;;;5047079;28;20456;-85
2024/03/29 06:46:11;;;;;;;1.87;1.67;;;10.10;52.50;;;;;;5045030;28;20495;-87
2024/03/29 06:48:39;;;;;;;1.40;1.40;;;10.20;52.90;;;;;;5030742;28;20448;-85
2024/03/29 06:51:06;;;;;;;1.40;1.30;;;10.20;54.50;;;;;;5042759;28;20455;-85
2024/03/29 06:53:35;;;;;;;1.40;1.30;;;10.20;54.10;;;;;;5041709;28;20456;-85
2024/03/29 06:56:04;;;;;;;1.30;1.20;;;10.20;54.80;;;;;;5041805;28;20485;-86
2024/03/29 06:58:31;;;;;;;1.30;1.20;;;10.20;56.10;;;;;;5043774;28;20472;-93
2024/03/29 07:00:59;;;;;;;1.50;1.40;;;10.20;55.70;;;;;;5038475;28;20517;-86
2024/03/29 07:03:26;;;;;;;1.27;1.20;;;10.20;54.40;;;;;;5043734;28;20439;-85
2024/03/29 07:05:53;;;;;;;1.27;1.20;;;10.20;53.20;;;;;;5045202;28;20806;-86
2024/03/29 07:08:21;;;;;;;1.30;1.20;;;10.20;52.70;;;;;;5046823;28;20458;-86
2024/03/29 07:10:48;;;;;;;1.60;1.50;;;10.30;54.80;;;;;;5040039;28;20457;-86
2024/03/29 07:13:20;;;;;;;1.73;1.63;;;10.30;53.60;;;;;;5047136;28;20813;-86
2024/03/29 07:15:52;;;;;;;1.50;1.40;;;10.30;53.50;;;;;;5045536;28;20448;-86
2024/03/29 07:18:20;;;;;;;1.40;1.20;;;10.30;54.80;;;;;;5059904;28;20451;-87
2024/03/29 07:20:47;;;;;;;1.30;1.20;;;10.30;55.40;;;;;;5026351;28;20461;-91
2024/03/29 07:23:15;;;;;;;1.10;1.10;;;10.30;54.30;;;;;;5044443;28;20526;-86
2024/03/29 07:25:44;;;;;;;4.00;1.50;;;10.20;54.20;;;;;;5028277;28;20477;-86
2024/03/29 07:28:14;;;;;;;1.37;1.30;;;10.20;59.10;;;;;;5041840;28;20459;-87
2024/03/29 07:30:44;;;;;;;1.40;1.40;;;10.20;64.40;;;;;;5040628;28;20470;-86
2024/03/29 07:33:15;;;;;;;1.30;1.20;;;10.20;74.40;;;;;;5036953;28;20491;-83
2024/03/29 07:35:42;;;;;;;1.52;1.42;;;10.10;86.40;;;;;;5030830;28;20595;-83
2024/03/29 07:38:12;;;;;;;1.50;1.40;;;9.90;96.40;;;;;;5038205;28;20259;-86
2024/03/29 07:40:39;;;;;;;1.77;1.50;;;9.90;96.50;;;;;;5045372;28;20448;-87
2024/03/29 07:43:07;;;;;;;1.70;1.60;;;9.80;99.90;;;;;;5045402;28;20454;-87
2024/03/29 07:45:34;;;;;;;1.57;1.30;;;9.90;99.90;;;;;;5047850;28;21062;-87
2024/03/29 07:48:03;;;;;;;1.90;1.80;;;9.90;99.90;;;;;;5043766;28;20468;-88
2024/03/29 07:50:33;;;;;;;4.20;2.03;;;9.90;99.90;;;;;;5045576;28;20452;-93
2024/03/29 07:53:01;;;;;;;1.70;1.60;;;10.00;99.90;;;;;;5045718;28;20436;-84
2024/03/29 07:55:28;;;;;;;1.40;1.30;;;9.90;99.90;;;;;;5042883;28;20479;-89
2024/03/29 07:57:56;;;;;;;1.43;1.33;;;9.90;99.90;;;;;;5039795;28;20483;-86
2024/03/29 08:00:23;;;;;;;1.60;1.50;;;10.00;99.90;;;;;;5044345;28;20856;-85
2024/03/29 08:02:53;;;;;;;1.50;1.40;;;9.90;99.90;;;;;;5040059;28;20459;-84
2024/03/29 08:05:22;;;;;;;1.20;1.20;;;10.00;99.90;;;;;;5043364;28;21185;-83
2024/03/29 08:07:54;;;;;;;1.20;1.20;;;10.10;99.90;;;;;;5024791;28;20467;-90
2024/03/29 08:10:23;;;;;;;1.40;1.20;;;10.00;99.90;;;;;;5043257;28;20444;-87
2024/03/29 08:12:50;;;;;;;1.33;1.23;;;10.10;99.90;;;;;;5043975;28;20449;-84
2024/03/29 08:15:18;;;;;;;1.40;1.30;;;10.10;99.90;;;;;;5025062;28;20980;-85
2024/03/29 08:17:45;;;;;;;1.30;1.20;;;10.10;99.90;;;;;;5020855;28;20475;-85
2024/03/29 08:20:13;;;;;;;1.50;1.40;;;10.20;99.90;;;;;;5029011;28;21299;-88
2024/03/29 08:22:42;;;;;;;1.40;1.30;;;10.30;99.90;;;;;;5038096;28;21314;-86
2024/03/29 08:25:09;;;;;;;1.60;1.50;;;10.20;99.90;;;;;;5047987;28;20505;-84
2024/03/29 08:27:37;;;;;;;1.40;1.40;;;10.30;99.90;;;;;;5048426;28;20496;-85
2024/03/29 08:30:05;;;;;;;1.23;1.23;;;10.30;99.90;;;;;;5026524;28;20882;-84
2024/03/29 08:32:33;;;;;;;3.03;2.83;;;10.30;99.90;;;;;;5028973;28;20444;-85
2024/03/29 08:35:01;;;;;;;1.70;1.60;;;10.20;99.90;;;;;;5045506;28;20847;-85
2024/03/29 08:37:30;;;;;;;1.60;1.50;;;10.20;99.90;;;;;;5048103;28;20477;-85
2024/03/29 08:39:58;;;;;;;1.30;1.30;;;10.20;99.90;;;;;;5045469;28;20451;-88
2024/03/29 08:42:26;;;;;;;1.50;1.40;;;10.30;99.90;;;;;;5045263;28;20481;-85
2024/03/29 08:44:54;;;;;;;1.53;1.43;;;10.30;99.90;;;;;;5030362;28;20443;-84
2024/03/29 08:47:21;;;;;;;1.97;1.87;;;10.30;99.90;;;;;;5043779;28;20475;-87
2024/03/29 08:49:48;;;;;;;1.80;1.70;;;10.30;1.00;;;;;;5048077;28;20963;-86
2024/03/29 08:52:17;;;;;;;2.20;2.00;;;10.40;1.00;;;;;;5048306;28;20980;-85
2024/03/29 08:54:44;;;;;;;2.23;2.13;;;10.40;1.00;;;;;;5046868;28;20525;-87
2024/03/29 08:57:13;;;;;;;1.93;1.83;;;10.40;1.00;;;;;;5046220;28;20480;-85
2024/03/29 08:59:41;;;;;;;2.30;2.10;;;10.40;1.00;;;;;;5049527;28;20440;-83
2024/03/29 09:02:08;;;;;;;4.20;2.57;;;10.50;90.90;;;;;;5048583;28;20454;-84
2024/03/29 09:04:36;;;;;;;2.70;2.50;;;10.50;7.50;;;;;;5046433;28;20457;-83
2024/03/29 09:07:03;;;;;;;3.70;3.50;;;10.50;99.90;;;;;;5045800;28;20473;-85
2024/03/29 09:09:31;;;;;;;2.80;2.60;;;10.40;99.90;;;;;;5046977;28;20882;-83
2024/03/29 09:11:58;;;;;;;3.43;1.93;;;10.50;99.90;;;;;;5050700;28;20451;-84
2024/03/29 09:14:27;;;;;;;2.30;2.13;;;10.60;99.90;;;;;;5045876;28;20448;-82
2024/03/29 09:16:54;;;;;;;2.43;2.00;;;10.60;99.90;;;;;;5045803;28;20484;-81
2024/03/29 09:19:22;;;;;;;2.23;2.13;;;10.60;99.90;;;;;;5047007;28;20463;-83
2024/03/29 09:21:49;;;;;;;2.40;2.20;;;10.70;99.90;;;;;;5052231;28;20451;-77
2024/03/29 09:24:17;;;;;;;5.30;2.40;;;10.70;99.90;;;;;;5035090;28;20444;-77
2024/03/29 09:26:44;;;;;;;2.33;2.00;;;10.60;99.90;;;;;;5020627;28;20494;-77
2024/03/29 09:29:12;;;;;;;2.40;2.03;;;10.70;99.90;;;;;;5033242;28;20528;-77
2024/03/29 09:31:41;;;;;;;4.00;1.50;;;10.70;99.90;;;;;;5036188;28;20556;-77
2024/03/29 09:34:09;;;;;;;1.80;1.70;;;10.70;1.00;;;;;;5034631;28;20458;-76
2024/03/29 09:36:36;;;;;;;2.00;1.90;;;10.70;1.00;;;;;;5036241;28;20467;-77
2024/03/29 09:39:03;;;;;;;2.10;1.90;;;10.70;1.00;;;;;;5026109;28;20929;-81
2024/03/29 09:41:34;;;;;;;2.80;2.60;;;10.60;1.00;;;;;;5050966;28;20571;-80
2024/03/29 09:44:04;;;;;;;2.30;2.10;;;10.60;99.90;;;;;;5051940;28;20194;-83
2024/03/29 09:46:32;;;;;;;1.90;1.80;;;10.50;99.90;;;;;;5045857;28;20476;-84
2024/03/29 09:49:04;;;;;;;2.00;1.90;;;10.70;99.90;;;;;;5051965;28;20442;-86
2024/03/29 09:51:32;;;;;;;3.20;2.30;;;10.90;99.90;;;;;;5034209;28;20457;-79
2024/03/29 09:54:00;;;;;;;3.60;3.40;;;11.00;1.00;;;;;;5051554;28;20457;-81
2024/03/29 09:56:29;;;;;;;2.33;2.20;;;11.10;41.40;;;;;;5032114;28;20476;-81
2024/03/29 09:58:58;;;;;;;2.53;2.37;;;11.20;1.00;;;;;;5036670;28;20482;-85
2024/03/29 10:01:25;;;;;;;2.53;2.43;;;11.10;1.00;;;;;;5033860;28;20449;-85
2024/03/29 10:03:55;;;;;;;2.33;2.13;;;11.20;1.00;;;;;;5032317;28;20561;-82
2024/03/29 10:06:25;;;;;;;3.10;2.90;;;11.30;1.00;;;;;;5049889;28;20485;-83
2024/03/29 10:08:57;;;;;;;2.83;2.67;;;11.30;1.00;;;;;;5051277;28;21195;-83
2024/03/29 10:11:24;;;;;;;2.20;2.10;;;11.40;1.00;;;;;;5050874;28;20459;-82
2024/03/29 10:13:52;;;;;;;4.10;3.80;;;11.50;99.90;;;;;;5047369;28;20451;-84
2024/03/29 10:16:21;;;;;;;3.20;3.00;;;11.50;1.00;;;;;;5033578;28;21282;-88
2024/03/29 10:18:49;;;;;;;2.87;2.67;;;11.60;51.40;;;;;;5033342;28;20476;-89
2024/03/29 10:21:16;;;;;;;3.80;3.60;;;11.80;1.00;;;;;;5047576;28;20823;-84
2024/03/29 10:23:47;;;;;;;3.30;3.10;;;11.90;1.00;;;;;;5050420;28;20448;-79
2024/03/29 10:26:14;;;;;;;3.03;2.80;;;12.00;99.90;;;;;;5041876;28;20514;-82
2024/03/29 10:28:44;;;;;;;2.60;2.50;;;12.10;99.90;;;;;;5045024;28;20542;-85
2024/03/29 10:31:13;;;;;;;2.60;2.40;;;12.20;1.00;;;;;;5050552;28;20483;-84
2024/03/29 10:33:44;;;;;;;2.10;2.00;;;12.20;1.00;;;;;;5045588;28;20941;-85
2024/03/29 10:36:12;;;;;;;2.20;2.10;;;12.20;1.00;;;;;;5048638;28;20494;-84
2024/03/29 10:38:39;;;;;;;2.63;2.53;;;12.30;1.00;;;;;;5044276;28;20471;-81
2024/03/29 10:41:08;;;;;;;2.60;2.50;;;12.30;1.00;;;;;;5035487;28;20452;-79
2024/03/29 10:43:36;;;;;;;2.70;2.50;;;12.40;1.00;;;;;;5041723;28;20469;-84
2024/03/29 10:46:05;;;;;;;2.67;2.57;;;12.40;1.00;;;;;;5045960;28;20514;-83
2024/03/29 10:48:33;;;;;;;2.73;2.63;;;12.40;1.00;;;;;;5045154;28;20838;-88
2024/03/29 10:51:00;;;;;;;2.77;2.67;;;12.40;99.90;;;;;;5049074;28;21153;-83
2024/03/29 10:53:28;;;;;;;2.80;2.53;;;12.50;99.90;;;;;;5047387;28;20449;-85
2024/03/29 10:55:59;;;;;;;2.23;2.13;;;12.50;99.90;;;;;;5030109;28;20463;-86
2024/03/29 10:58:32;;;;;;;2.70;2.60;;;12.50;1.00;;;;;;5036361;28;20472;-84
2024/03/29 11:01:00;;;;;;;2.60;2.50;;;12.60;1.00;;;;;;5044824;28;20452;-81
2024/03/29 11:03:36;;;;;;;3.27;3.07;;;12.70;1.00;;;;;;5047719;28;20465;-82
2024/03/29 11:06:06;;;;;;;2.70;2.60;;;12.70;1.00;;;;;;5041676;28;20481;-85
2024/03/29 11:08:37;;;;;;;3.13;3.03;;;12.80;99.90;;;;;;5032793;28;20446;-85
2024/03/29 11:11:09;;;;;;;4.33;3.93;;;12.80;99.90;;;;;;5049517;28;20471;-85
2024/03/29 11:13:48;;;;;;;2.53;2.43;;;12.80;99.90;;;;;;5049029;28;20480;-84
2024/03/29 11:16:16;;;;;;;2.50;2.40;;;12.90;99.90;;;;;;5045534;28;20542;-84
2024/03/29 11:18:47;;;;;;;2.80;2.60;;;12.90;99.90;;;;;;5046391;28;20441;-82
2024/03/29 11:21:18;;;;;;;2.50;2.40;;;12.90;99.90;;;;;;5049606;28;20194;-84
2024/03/29 11:23:49;;;;;;;3.17;3.07;;;13.00;99.90;;;;;;5042849;28;20445;-83
2024/03/29 11:26:17;;;;;;;3.63;3.50;;;13.00;99.90;;;;;;5048007;28;20465;-84
2024/03/29 11:28:51;;;;;;;3.47;3.37;;;13.10;99.90;;;;;;5030491;28;21333;-84
2024/03/29 11:31:22;;;;;;;3.60;3.40;;;13.10;99.90;;;;;;5028896;28;20578;-81
2024/03/29 11:33:52;;;;;;;4.10;4.00;;;13.20;99.90;;;;;;5027564;28;20848;-81
2024/03/29 11:36:21;;;;;;;3.00;2.90;;;13.20;99.90;;;;;;5038221;28;20474;-84
2024/03/29 11:38:49;;;;;;;3.00;2.90;;;13.20;1.00;;;;;;5040610;28;20507;-82
2024/03/29 11:41:19;;;;;;;2.77;2.67;;;13.20;99.90;;;;;;5044304;28;21117;-83
2024/03/29 11:43:47;;;;;;;2.30;2.20;;;13.20;99.90;;;;;;5028631;28;20498;-84
2024/03/29 11:46:16;;;;;;;3.23;3.03;;;13.20;99.90;;;;;;5040632;28;20836;-82
2024/03/29 11:48:46;;;;;;;2.97;2.87;;;13.30;99.90;;;;;;5044914;28;20960;-85
2024/03/29 11:51:14;;;;;;;2.33;2.23;;;13.20;99.90;;;;;;5049487;28;20463;-81
2024/03/29 11:53:42;;;;;;;3.10;3.00;;;13.30;99.90;;;;;;5047301;28;20451;-81
2024/03/29 11:56:11;;;;;;;3.47;3.17;;;13.20;99.90;;;;;;5046938;28;20566;-81
2024/03/29 11:58:39;;;;;;;2.13;2.03;;;13.30;99.90;;;;;;5029282;28;20478;-86
2024/03/29 12:01:09;;;;;;;3.17;2.20;;;13.30;99.90;;;;;;5048131;28;20493;-89
2024/03/29 12:03:40;;;;;;;2.20;2.10;;;13.30;99.90;;;;;;5029944;28;21087;-86
2024/03/29 12:06:08;;;;;;;2.00;1.90;;;13.30;99.90;;;;;;5030825;28;20479;-82
2024/03/29 12:08:36;;;;;;;2.10;2.00;;;13.40;99.90;;;;;;5046190;28;20442;-82
2024/03/29 12:11:05;;;;;;;2.10;2.00;;;13.40;99.90;;;;;;5045255;28;20521;-87
2024/03/29 12:13:32;;;;;;;1.93;1.83;;;13.50;99.90;;;;;;5047604;28;20458;-84
2024/03/29 12:16:00;;;;;;;2.00;1.90;;;13.50;99.90;;;;;;5032069;28;20449;-85
2024/03/29 12:18:29;;;;;;;2.13;2.00;;;13.50;99.90;;;;;;5046334;28;20466;-83
2024/03/29 12:20:59;;;;;;;1.53;1.53;;;13.50;99.90;;;;;;5028425;28;20454;-84
2024/03/29 12:23:26;;;;;;;1.60;1.50;;;13.60;99.90;;;;;;5052440;28;20469;-84
2024/03/29 12:25:57;;;;;;;1.70;1.60;;;13.60;99.90;;;;;;5045669;28;20481;-86
2024/03/29 12:28:25;;;;;;;1.93;1.83;;;13.60;99.90;;;;;;5035090;28;20451;-79
2024/03/29 12:30:52;;;;;;;2.40;2.30;;;13.60;99.90;;;;;;5032374;28;20513;-80
2024/03/29 12:33:21;;;;;;;3.43;2.60;;;13.70;99.90;;;;;;5030713;28;20568;-78
2024/03/29 12:35:49;;;;;;;1.40;1.40;;;13.80;99.90;;;;;;5033423;28;20824;-79
2024/03/29 12:38:19;;;;;;;1.83;1.73;;;13.80;99.90;;;;;;5045853;28;20506;-82
2024/03/29 12:40:48;;;;;;;1.50;1.50;;;14.00;99.90;;;;;;5043100;28;20547;-83
2024/03/29 12:43:19;;;;;;;1.80;1.70;;;14.00;99.90;;;;;;5042787;28;20882;-81
2024/03/29 12:45:47;;;;;;;2.40;2.30;;;14.00;99.90;;;;;;5043823;28;20561;-85
2024/03/29 12:48:18;;;;;;;2.00;1.70;;;14.00;99.90;;;;;;5044973;28;20802;-84
2024/03/29 12:50:46;;;;;;;1.70;1.60;;;14.10;99.90;;;;;;5044841;28;20452;-83
2024/03/29 12:53:15;;;;;;;1.60;1.50;;;14.00;99.90;;;;;;5042457;28;21267;-86
2024/03/29 12:55:45;;;;;;;1.80;1.70;;;14.00;99.90;;;;;;5044330;28;20498;-87
2024/03/29 12:58:13;;;;;;;1.90;1.80;;;14.10;99.90;;;;;;5052414;28;20444;-85
2024/03/29 13:00:41;;;;;;;1.80;1.80;;;14.20;99.90;;;;;;5047270;28;20504;-82
2024/03/29 13:03:09;;;;;;;1.90;1.80;;;14.20;99.90;;;;;;5046045;28;20454;-84
2024/03/29 13:05:40;;;;;;;2.13;2.03;;;14.30;99.90;;;;;;5047911;28;20941;-84
2024/03/29 13:08:10;;;;;;;1.70;1.70;;;14.30;99.90;;;;;;5044245;28;20471;-87
2024/03/29 13:10:38;;;;;;;1.70;1.60;;;14.40;99.90;;;;;;5029547;28;20442;-81
2024/03/29 13:13:07;;;;;;;1.80;1.70;;;14.50;99.90;;;;;;5030969;28;21022;-82
2024/03/29 13:15:36;;;;;;;1.70;1.60;;;14.60;99.90;;;;;;5030937;28;20821;-85
2024/03/29 13:18:06;;;;;;;2.00;1.80;;;14.60;99.90;;;;;;5036418;28;20497;-84
2024/03/29 13:20:36;;;;;;;1.80;1.70;;;14.70;99.90;;;;;;5027109;28;20499;-85
2024/03/29 13:23:04;;;;;;;1.70;1.60;;;14.70;99.90;;;;;;5031157;28;20492;-91
2024/03/29 13:25:32;;;;;;;1.67;1.67;;;14.70;99.90;;;;;;5051919;28;20455;-90
2024/03/29 13:27:59;;;;;;;1.80;1.70;;;14.80;99.90;;;;;;5035784;28;20542;-85
2024/03/29 13:30:28;;;;;;;1.70;1.60;;;14.80;99.90;;;;;;5047527;28;20533;-85
2024/03/29 13:32:56;;;;;;;1.83;1.60;;;15.00;99.90;;;;;;5051555;28;20453;-84
2024/03/29 13:35:24;;;;;;;1.93;1.93;;;15.00;99.90;;;;;;5050607;28;20496;-85
2024/03/29 13:37:53;;;;;;;1.70;1.70;;;15.10;99.90;;;;;;5049318;28;20476;-81
2024/03/29 13:40:22;;;;;;;2.20;2.10;;;15.10;99.90;;;;;;5043369;28;20611;-82
2024/03/29 13:42:49;;;;;;;1.70;1.60;;;15.10;99.90;;;;;;5047130;28;20793;-86
2024/03/29 13:45:17;;;;;;;1.70;1.60;;;15.10;99.90;;;;;;5044239;28;20300;-83
2024/03/29 13:47:47;;;;;;;1.60;1.60;;;15.10;99.90;;;;;;5047057;28;20480;-86
2024/03/29 13:50:15;;;;;;;1.90;1.70;;;15.20;99.90;;;;;;5051977;28;20435;-82
2024/03/29 13:52:43;;;;;;;1.80;1.70;;;15.30;99.90;;;;;;5047662;28;20456;-85
2024/03/29 13:55:11;;;;;;;1.87;1.87;;;15.30;99.90;;;;;;5032415;28;20483;-82
2024/03/29 13:57:39;;;;;;;1.67;1.60;;;15.40;99.90;;;;;;5047274;28;20478;-82
2024/03/29 14:00:07;;;;;;;1.60;1.60;;;15.40;99.90;;;;;;5041062;28;20483;-85
2024/03/29 14:02:34;;;;;;;1.80;1.70;;;15.40;99.90;;;;;;5043839;28;20505;-83
2024/03/29 14:05:03;;;;;;;1.90;1.80;;;15.40;99.90;;;;;;5043695;28;20456;-81
2024/03/29 14:07:30;;;;;;;1.60;1.60;;;15.50;99.90;;;;;;5045027;28;20977;-83
2024/03/29 14:09:58;;;;;;;1.60;1.60;;;15.50;99.90;;;;;;5030207;28;20487;-82
2024/03/29 14:12:25;;;;;;;1.60;1.60;;;15.40;99.90;;;;;;5047135;28;20500;-83
2024/03/29 14:14:53;;;;;;;1.60;1.60;;;15.50;99.90;;;;;;5043668;28;20998;-83
2024/03/29 14:17:21;;;;;;;1.60;1.50;;;15.50;99.90;;;;;;5023831;28;20485;-84
2024/03/29 14:19:49;;;;;;;1.97;1.87;;;15.50;99.90;;;;;;5042641;28;20474;-83
2024/03/29 14:22:19;;;;;;;2.10;1.80;;;15.60;99.90;;;;;;5045113;28;21001;-82
2024/03/29 14:24:46;;;;;;;2.40;2.30;;;15.60;99.90;;;;;;5046851;28;20450;-83
2024/03/29 14:27:14;;;;;;;1.90;1.80;;;15.70;99.90;;;;;;5036770;28;20503;-85
2024/03/29 14:29:44;;;;;;;1.80;1.70;;;15.60;99.90;;;;;;5024238;28;20504;-82
2024/03/29 14:32:11;;;;;;;2.33;2.13;;;15.70;99.90;;;;;;5044462;28;20444;-82
2024/03/29 14:34:44;;;;;;;1.80;1.80;;;15.70;99.90;;;;;;5041688;28;20481;-85
2024/03/29 14:37:13;;;;;;;1.70;1.60;;;15.70;99.90;;;;;;5042950;28;20518;-82
2024/03/29 14:39:43;;;;;;;1.80;1.70;;;15.80;99.90;;;;;;5046535;28;21018;-83
2024/03/29 14:42:13;;;;;;;1.73;1.63;;;15.80;99.90;;;;;;5040880;28;20859;-85
2024/03/29 14:44:41;;;;;;;1.80;1.70;;;15.80;99.90;;;;;;5033785;28;20493;-82
2024/03/29 14:47:08;;;;;;;2.17;2.07;;;15.90;99.90;;;;;;5041938;28;21476;-82
2024/03/29 14:49:35;;;;;;;1.73;1.70;;;15.90;99.90;;;;;;5044965;28;21113;-84